sensor_id;sensor_type;location;lat;lon;timestamp;P1;durP1;ratioP1;P2;durP2;ratioP2
75928;SDS011;64606;44.062;2.986;2023-03-31T00:01:25;29.92;;;8.50;;
75928;SDS011;64606;44.062;2.986;2023-03-31T00:03:51;12.77;;;4.20;;
75928;SDS011;64606;44.062;2.986;2023-03-31T00:06:30;10.88;;;3.30;;
75928;SDS011;64606;44.062;2.986;2023-03-31T00:08:56;30.05;;;10.45;;
75928;SDS011;64606;44.062;2.986;2023-03-31T00:11:26;19.30;;;5.95;;
75928;SDS011;64606;44.062;2.986;2023-03-31T00:13:52;16.13;;;5.55;;
75928;SDS011;64606;44.062;2.986;2023-03-31T00:16:19;19.00;;;6.85;;
75928;SDS011;64606;44.062;2.986;2023-03-31T00:18:45;12.85;;;4.07;;
75928;SDS011;64606;44.062;2.986;2023-03-31T00:21:17;13.55;;;3.25;;
75928;SDS011;64606;44.062;2.986;2023-03-31T00:23:50;12.13;;;4.03;;
75928;SDS011;64606;44.062;2.986;2023-03-31T00:26:16;11.40;;;3.60;;
75928;SDS011;64606;44.062;2.986;2023-03-31T00:28:42;13.35;;;3.70;;
75928;SDS011;64606;44.062;2.986;2023-03-31T00:31:08;11.15;;;3.53;;
75928;SDS011;64606;44.062;2.986;2023-03-31T00:33:34;9.90;;;3.40;;
75928;SDS011;64606;44.062;2.986;2023-03-31T00:36:00;11.98;;;3.30;;
75928;SDS011;64606;44.062;2.986;2023-03-31T00:38:30;9.48;;;3.28;;
75928;SDS011;64606;44.062;2.986;2023-03-31T00:40:56;8.48;;;3.47;;
75928;SDS011;64606;44.062;2.986;2023-03-31T00:45:57;9.18;;;3.45;;
75928;SDS011;64606;44.062;2.986;2023-03-31T00:48:25;10.45;;;3.25;;
75928;SDS011;64606;44.062;2.986;2023-03-31T00:50:55;21.63;;;5.07;;
75928;SDS011;64606;44.062;2.986;2023-03-31T00:53:26;19.98;;;7.47;;
75928;SDS011;64606;44.062;2.986;2023-03-31T00:55:54;19.00;;;6.53;;
75928;SDS011;64606;44.062;2.986;2023-03-31T00:58:22;16.15;;;4.47;;
75928;SDS011;64606;44.062;2.986;2023-03-31T01:00:52;14.77;;;3.90;;
75928;SDS011;64606;44.062;2.986;2023-03-31T01:03:20;11.55;;;3.65;;
75928;SDS011;64606;44.062;2.986;2023-03-31T01:08:15;11.15;;;4.20;;
75928;SDS011;64606;44.062;2.986;2023-03-31T01:10:47;16.85;;;4.60;;
75928;SDS011;64606;44.062;2.986;2023-03-31T01:13:14;16.15;;;4.35;;
75928;SDS011;64606;44.062;2.986;2023-03-31T01:15:41;13.82;;;4.88;;
75928;SDS011;64606;44.062;2.986;2023-03-31T01:18:08;16.50;;;6.25;;
75928;SDS011;64606;44.062;2.986;2023-03-31T01:25:41;12.18;;;6.20;;
75928;SDS011;64606;44.062;2.986;2023-03-31T01:39:19;9.65;;;3.15;;
75928;SDS011;64606;44.062;2.986;2023-03-31T01:42:17;11.68;;;3.92;;
75928;SDS011;64606;44.062;2.986;2023-03-31T01:46:53;13.38;;;4.70;;
75928;SDS011;64606;44.062;2.986;2023-03-31T01:49:27;9.00;;;3.72;;
75928;SDS011;64606;44.062;2.986;2023-03-31T01:52:01;11.13;;;3.28;;
75928;SDS011;64606;44.062;2.986;2023-03-31T01:56:59;11.25;;;4.00;;
75928;SDS011;64606;44.062;2.986;2023-03-31T02:01:52;10.50;;;3.70;;
75928;SDS011;64606;44.062;2.986;2023-03-31T02:04:26;11.85;;;3.42;;
75928;SDS011;64606;44.062;2.986;2023-03-31T02:06:58;10.98;;;3.70;;
75928;SDS011;64606;44.062;2.986;2023-03-31T02:09:27;12.00;;;4.10;;
75928;SDS011;64606;44.062;2.986;2023-03-31T02:11:54;18.15;;;4.47;;
75928;SDS011;64606;44.062;2.986;2023-03-31T02:14:24;17.40;;;4.65;;
75928;SDS011;64606;44.062;2.986;2023-03-31T02:16:52;13.93;;;3.90;;
75928;SDS011;64606;44.062;2.986;2023-03-31T02:19:22;14.60;;;3.58;;
75928;SDS011;64606;44.062;2.986;2023-03-31T02:21:49;10.63;;;3.45;;
75928;SDS011;64606;44.062;2.986;2023-03-31T02:24:16;12.25;;;4.30;;
75928;SDS011;64606;44.062;2.986;2023-03-31T02:27:05;12.80;;;4.70;;
75928;SDS011;64606;44.062;2.986;2023-03-31T02:29:32;10.43;;;3.47;;
75928;SDS011;64606;44.062;2.986;2023-03-31T02:34:24;10.10;;;4.03;;
75928;SDS011;64606;44.062;2.986;2023-03-31T02:36:50;9.90;;;3.60;;
75928;SDS011;64606;44.062;2.986;2023-03-31T02:39:18;8.73;;;3.47;;
75928;SDS011;64606;44.062;2.986;2023-03-31T02:41:46;9.35;;;3.20;;
75928;SDS011;64606;44.062;2.986;2023-03-31T02:44:12;11.60;;;3.28;;
75928;SDS011;64606;44.062;2.986;2023-03-31T02:46:38;21.65;;;13.20;;
75928;SDS011;64606;44.062;2.986;2023-03-31T02:49:05;14.75;;;7.63;;
75928;SDS011;64606;44.062;2.986;2023-03-31T03:05:58;9.93;;;3.63;;
75928;SDS011;64606;44.062;2.986;2023-03-31T03:15:38;14.10;;;3.33;;
75928;SDS011;64606;44.062;2.986;2023-03-31T03:18:07;11.88;;;3.60;;
75928;SDS011;64606;44.062;2.986;2023-03-31T03:20:33;6.25;;;3.50;;
75928;SDS011;64606;44.062;2.986;2023-03-31T03:23:00;13.48;;;3.42;;
75928;SDS011;64606;44.062;2.986;2023-03-31T03:25:26;9.82;;;3.35;;
75928;SDS011;64606;44.062;2.986;2023-03-31T03:27:54;10.32;;;3.30;;
75928;SDS011;64606;44.062;2.986;2023-03-31T03:30:20;14.75;;;3.97;;
75928;SDS011;64606;44.062;2.986;2023-03-31T03:32:46;13.23;;;3.50;;
75928;SDS011;64606;44.062;2.986;2023-03-31T03:35:12;13.05;;;3.83;;
75928;SDS011;64606;44.062;2.986;2023-03-31T03:37:39;10.57;;;3.17;;
75928;SDS011;64606;44.062;2.986;2023-03-31T03:40:05;12.95;;;3.85;;
75928;SDS011;64606;44.062;2.986;2023-03-31T03:42:32;11.68;;;3.67;;
75928;SDS011;64606;44.062;2.986;2023-03-31T03:44:58;10.25;;;3.70;;
75928;SDS011;64606;44.062;2.986;2023-03-31T03:47:25;8.73;;;2.92;;
75928;SDS011;64606;44.062;2.986;2023-03-31T03:49:51;9.13;;;3.17;;
75928;SDS011;64606;44.062;2.986;2023-03-31T03:52:17;16.27;;;3.80;;
75928;SDS011;64606;44.062;2.986;2023-03-31T03:54:44;9.82;;;3.40;;
75928;SDS011;64606;44.062;2.986;2023-03-31T03:57:10;10.85;;;3.28;;
75928;SDS011;64606;44.062;2.986;2023-03-31T03:59:36;13.18;;;3.85;;
75928;SDS011;64606;44.062;2.986;2023-03-31T04:02:02;11.13;;;3.40;;
75928;SDS011;64606;44.062;2.986;2023-03-31T04:04:29;10.15;;;3.80;;
75928;SDS011;64606;44.062;2.986;2023-03-31T04:06:55;10.07;;;3.85;;
75928;SDS011;64606;44.062;2.986;2023-03-31T04:09:21;9.80;;;3.40;;
75928;SDS011;64606;44.062;2.986;2023-03-31T04:11:47;11.38;;;3.95;;
75928;SDS011;64606;44.062;2.986;2023-03-31T04:14:13;12.55;;;3.63;;
75928;SDS011;64606;44.062;2.986;2023-03-31T04:16:39;11.63;;;3.65;;
75928;SDS011;64606;44.062;2.986;2023-03-31T04:19:06;14.48;;;3.47;;
75928;SDS011;64606;44.062;2.986;2023-03-31T04:21:35;10.18;;;3.75;;
75928;SDS011;64606;44.062;2.986;2023-03-31T04:24:09;10.57;;;3.40;;
75928;SDS011;64606;44.062;2.986;2023-03-31T04:26:36;10.20;;;3.80;;
75928;SDS011;64606;44.062;2.986;2023-03-31T04:29:12;12.65;;;3.58;;
75928;SDS011;64606;44.062;2.986;2023-03-31T04:31:40;8.60;;;3.70;;
75928;SDS011;64606;44.062;2.986;2023-03-31T04:34:10;15.93;;;3.80;;
75928;SDS011;64606;44.062;2.986;2023-03-31T04:36:44;30.85;;;16.25;;
75928;SDS011;64606;44.062;2.986;2023-03-31T04:39:14;20.88;;;5.88;;
75928;SDS011;64606;44.062;2.986;2023-03-31T04:41:40;10.23;;;4.95;;
75928;SDS011;64606;44.062;2.986;2023-03-31T04:44:06;12.18;;;3.97;;
75928;SDS011;64606;44.062;2.986;2023-03-31T04:46:33;11.18;;;3.90;;
75928;SDS011;64606;44.062;2.986;2023-03-31T04:49:00;12.07;;;3.85;;
75928;SDS011;64606;44.062;2.986;2023-03-31T04:51:27;7.38;;;3.95;;
75928;SDS011;64606;44.062;2.986;2023-03-31T04:53:53;6.25;;;3.28;;
75928;SDS011;64606;44.062;2.986;2023-03-31T04:56:19;6.97;;;3.22;;
75928;SDS011;64606;44.062;2.986;2023-03-31T04:58:46;9.43;;;3.83;;
75928;SDS011;64606;44.062;2.986;2023-03-31T05:01:13;13.82;;;4.00;;
75928;SDS011;64606;44.062;2.986;2023-03-31T05:03:42;8.73;;;3.67;;
75928;SDS011;64606;44.062;2.986;2023-03-31T05:06:08;11.80;;;4.40;;
75928;SDS011;64606;44.062;2.986;2023-03-31T05:08:35;11.18;;;3.85;;
75928;SDS011;64606;44.062;2.986;2023-03-31T05:11:01;10.60;;;3.58;;
75928;SDS011;64606;44.062;2.986;2023-03-31T05:13:28;10.05;;;3.60;;
75928;SDS011;64606;44.062;2.986;2023-03-31T05:15:54;13.38;;;3.53;;
75928;SDS011;64606;44.062;2.986;2023-03-31T05:18:20;10.68;;;4.72;;
75928;SDS011;64606;44.062;2.986;2023-03-31T05:20:46;10.07;;;4.10;;
75928;SDS011;64606;44.062;2.986;2023-03-31T05:23:12;9.60;;;3.88;;
75928;SDS011;64606;44.062;2.986;2023-03-31T05:25:39;11.15;;;3.50;;
75928;SDS011;64606;44.062;2.986;2023-03-31T05:28:06;7.57;;;3.50;;
75928;SDS011;64606;44.062;2.986;2023-03-31T05:30:36;8.18;;;3.20;;
75928;SDS011;64606;44.062;2.986;2023-03-31T05:33:02;15.52;;;4.05;;
75928;SDS011;64606;44.062;2.986;2023-03-31T05:35:28;11.85;;;4.07;;
75928;SDS011;64606;44.062;2.986;2023-03-31T05:37:54;13.50;;;3.92;;
75928;SDS011;64606;44.062;2.986;2023-03-31T05:40:20;8.18;;;3.90;;
75928;SDS011;64606;44.062;2.986;2023-03-31T05:42:46;9.30;;;3.70;;
75928;SDS011;64606;44.062;2.986;2023-03-31T05:45:12;19.42;;;4.80;;
75928;SDS011;64606;44.062;2.986;2023-03-31T05:47:39;10.10;;;3.70;;
75928;SDS011;64606;44.062;2.986;2023-03-31T05:50:05;14.40;;;4.28;;
75928;SDS011;64606;44.062;2.986;2023-03-31T05:52:32;11.93;;;4.20;;
75928;SDS011;64606;44.062;2.986;2023-03-31T05:54:59;20.58;;;5.47;;
75928;SDS011;64606;44.062;2.986;2023-03-31T05:57:25;11.50;;;4.47;;
75928;SDS011;64606;44.062;2.986;2023-03-31T05:59:51;11.93;;;4.18;;
75928;SDS011;64606;44.062;2.986;2023-03-31T06:02:17;10.30;;;3.90;;
75928;SDS011;64606;44.062;2.986;2023-03-31T06:04:43;16.13;;;4.78;;
75928;SDS011;64606;44.062;2.986;2023-03-31T06:07:09;14.38;;;3.88;;
75928;SDS011;64606;44.062;2.986;2023-03-31T06:09:35;14.75;;;5.00;;
75928;SDS011;64606;44.062;2.986;2023-03-31T06:12:01;12.75;;;4.65;;
75928;SDS011;64606;44.062;2.986;2023-03-31T06:14:27;22.50;;;7.35;;
75928;SDS011;64606;44.062;2.986;2023-03-31T06:16:53;13.32;;;5.60;;
75928;SDS011;64606;44.062;2.986;2023-03-31T06:19:20;15.70;;;5.78;;
75928;SDS011;64606;44.062;2.986;2023-03-31T06:21:46;13.45;;;5.47;;
75928;SDS011;64606;44.062;2.986;2023-03-31T06:24:12;18.23;;;6.88;;
75928;SDS011;64606;44.062;2.986;2023-03-31T06:26:38;15.13;;;5.70;;
75928;SDS011;64606;44.062;2.986;2023-03-31T06:29:04;16.58;;;4.88;;
75928;SDS011;64606;44.062;2.986;2023-03-31T06:31:30;11.57;;;4.32;;
75928;SDS011;64606;44.062;2.986;2023-03-31T06:33:57;13.25;;;4.47;;
75928;SDS011;64606;44.062;2.986;2023-03-31T06:36:23;11.77;;;4.75;;
75928;SDS011;64606;44.062;2.986;2023-03-31T06:38:49;12.95;;;4.93;;
75928;SDS011;64606;44.062;2.986;2023-03-31T06:41:16;19.23;;;5.35;;
75928;SDS011;64606;44.062;2.986;2023-03-31T06:43:42;18.48;;;6.22;;
75928;SDS011;64606;44.062;2.986;2023-03-31T06:46:09;15.82;;;6.38;;
75928;SDS011;64606;44.062;2.986;2023-03-31T06:48:35;12.95;;;5.85;;
75928;SDS011;64606;44.062;2.986;2023-03-31T06:51:02;15.35;;;6.05;;
75928;SDS011;64606;44.062;2.986;2023-03-31T06:53:29;13.65;;;4.43;;
75928;SDS011;64606;44.062;2.986;2023-03-31T06:55:56;10.27;;;5.20;;
75928;SDS011;64606;44.062;2.986;2023-03-31T06:58:22;15.05;;;6.28;;
75928;SDS011;64606;44.062;2.986;2023-03-31T07:00:48;12.20;;;5.05;;
75928;SDS011;64606;44.062;2.986;2023-03-31T07:03:14;10.77;;;5.00;;
75928;SDS011;64606;44.062;2.986;2023-03-31T07:05:47;15.00;;;6.18;;
75928;SDS011;64606;44.062;2.986;2023-03-31T07:08:13;12.98;;;4.45;;
75928;SDS011;64606;44.062;2.986;2023-03-31T07:10:41;15.88;;;5.03;;
75928;SDS011;64606;44.062;2.986;2023-03-31T07:13:08;13.57;;;4.47;;
75928;SDS011;64606;44.062;2.986;2023-03-31T07:15:34;11.73;;;4.35;;
75928;SDS011;64606;44.062;2.986;2023-03-31T07:18:00;18.80;;;4.85;;
75928;SDS011;64606;44.062;2.986;2023-03-31T07:20:27;15.98;;;5.75;;
75928;SDS011;64606;44.062;2.986;2023-03-31T07:22:53;21.95;;;5.65;;
75928;SDS011;64606;44.062;2.986;2023-03-31T07:25:19;17.08;;;5.05;;
75928;SDS011;64606;44.062;2.986;2023-03-31T07:27:46;12.82;;;5.07;;
75928;SDS011;64606;44.062;2.986;2023-03-31T07:30:14;12.43;;;4.55;;
75928;SDS011;64606;44.062;2.986;2023-03-31T07:32:40;15.18;;;5.43;;
75928;SDS011;64606;44.062;2.986;2023-03-31T07:35:07;16.15;;;4.53;;
75928;SDS011;64606;44.062;2.986;2023-03-31T07:37:40;16.40;;;4.78;;
75928;SDS011;64606;44.062;2.986;2023-03-31T07:40:07;18.08;;;4.03;;
75928;SDS011;64606;44.062;2.986;2023-03-31T07:42:34;13.60;;;3.33;;
75928;SDS011;64606;44.062;2.986;2023-03-31T07:45:00;15.98;;;4.25;;
75928;SDS011;64606;44.062;2.986;2023-03-31T07:47:27;12.05;;;3.10;;
75928;SDS011;64606;44.062;2.986;2023-03-31T07:49:53;15.82;;;3.25;;
75928;SDS011;64606;44.062;2.986;2023-03-31T07:52:19;11.27;;;2.78;;
75928;SDS011;64606;44.062;2.986;2023-03-31T07:54:45;14.57;;;3.03;;
75928;SDS011;64606;44.062;2.986;2023-03-31T07:57:11;18.83;;;3.40;;
75928;SDS011;64606;44.062;2.986;2023-03-31T07:59:38;19.67;;;3.17;;
75928;SDS011;64606;44.062;2.986;2023-03-31T08:02:04;23.73;;;3.58;;
75928;SDS011;64606;44.062;2.986;2023-03-31T08:04:30;18.73;;;2.92;;
75928;SDS011;64606;44.062;2.986;2023-03-31T08:06:56;19.08;;;3.00;;
75928;SDS011;64606;44.062;2.986;2023-03-31T08:09:22;18.50;;;3.45;;
75928;SDS011;64606;44.062;2.986;2023-03-31T08:11:48;23.48;;;3.80;;
75928;SDS011;64606;44.062;2.986;2023-03-31T08:14:14;21.15;;;3.42;;
75928;SDS011;64606;44.062;2.986;2023-03-31T08:16:41;20.75;;;3.53;;
75928;SDS011;64606;44.062;2.986;2023-03-31T08:19:07;23.42;;;3.17;;
75928;SDS011;64606;44.062;2.986;2023-03-31T08:21:33;24.02;;;3.33;;
75928;SDS011;64606;44.062;2.986;2023-03-31T08:23:59;25.83;;;3.92;;
75928;SDS011;64606;44.062;2.986;2023-03-31T08:26:25;16.35;;;2.83;;
75928;SDS011;64606;44.062;2.986;2023-03-31T08:28:51;23.67;;;3.60;;
75928;SDS011;64606;44.062;2.986;2023-03-31T08:31:18;21.88;;;3.75;;
75928;SDS011;64606;44.062;2.986;2023-03-31T08:33:45;16.02;;;3.63;;
75928;SDS011;64606;44.062;2.986;2023-03-31T08:36:12;22.63;;;3.97;;
75928;SDS011;64606;44.062;2.986;2023-03-31T08:38:39;16.35;;;2.88;;
75928;SDS011;64606;44.062;2.986;2023-03-31T08:43:53;14.88;;;3.13;;
75928;SDS011;64606;44.062;2.986;2023-03-31T08:46:20;16.20;;;2.95;;
75928;SDS011;64606;44.062;2.986;2023-03-31T08:48:48;20.58;;;4.03;;
75928;SDS011;64606;44.062;2.986;2023-03-31T08:51:28;16.35;;;3.10;;
75928;SDS011;64606;44.062;2.986;2023-03-31T08:54:03;20.60;;;3.42;;
75928;SDS011;64606;44.062;2.986;2023-03-31T08:56:34;14.55;;;3.13;;
75928;SDS011;64606;44.062;2.986;2023-03-31T08:59:01;20.08;;;3.70;;
75928;SDS011;64606;44.062;2.986;2023-03-31T09:07:08;21.13;;;3.40;;
75928;SDS011;64606;44.062;2.986;2023-03-31T09:15:07;17.20;;;3.45;;
75928;SDS011;64606;44.062;2.986;2023-03-31T09:17:39;21.42;;;3.75;;
75928;SDS011;64606;44.062;2.986;2023-03-31T09:20:29;19.02;;;4.03;;
75928;SDS011;64606;44.062;2.986;2023-03-31T09:25:33;23.13;;;4.35;;
75928;SDS011;64606;44.062;2.986;2023-03-31T09:28:01;18.63;;;4.10;;
75928;SDS011;64606;44.062;2.986;2023-03-31T09:30:29;22.00;;;4.40;;
75928;SDS011;64606;44.062;2.986;2023-03-31T09:33:17;21.98;;;4.28;;
75928;SDS011;64606;44.062;2.986;2023-03-31T09:35:42;26.48;;;4.72;;
75928;SDS011;64606;44.062;2.986;2023-03-31T09:38:09;25.05;;;3.85;;
75928;SDS011;64606;44.062;2.986;2023-03-31T09:40:36;26.30;;;3.80;;
75928;SDS011;64606;44.062;2.986;2023-03-31T09:43:03;20.77;;;3.97;;
75928;SDS011;64606;44.062;2.986;2023-03-31T09:45:30;23.85;;;3.67;;
75928;SDS011;64606;44.062;2.986;2023-03-31T09:47:59;21.42;;;4.20;;
75928;SDS011;64606;44.062;2.986;2023-03-31T09:50:26;19.92;;;3.92;;
75928;SDS011;64606;44.062;2.986;2023-03-31T09:52:57;27.08;;;5.30;;
75928;SDS011;64606;44.062;2.986;2023-03-31T09:55:37;17.13;;;3.55;;
75928;SDS011;64606;44.062;2.986;2023-03-31T09:58:07;21.58;;;3.72;;
75928;SDS011;64606;44.062;2.986;2023-03-31T10:00:37;18.27;;;3.78;;
75928;SDS011;64606;44.062;2.986;2023-03-31T10:03:05;18.55;;;3.13;;
75928;SDS011;64606;44.062;2.986;2023-03-31T10:05:33;22.08;;;3.90;;
75928;SDS011;64606;44.062;2.986;2023-03-31T10:10:36;19.25;;;3.90;;
75928;SDS011;64606;44.062;2.986;2023-03-31T10:13:06;16.85;;;3.30;;
75928;SDS011;64606;44.062;2.986;2023-03-31T10:15:35;19.85;;;3.58;;
75928;SDS011;64606;44.062;2.986;2023-03-31T10:18:02;19.38;;;3.17;;
75928;SDS011;64606;44.062;2.986;2023-03-31T10:22:55;17.52;;;4.07;;
75928;SDS011;64606;44.062;2.986;2023-03-31T10:25:22;14.13;;;3.75;;
75928;SDS011;64606;44.062;2.986;2023-03-31T10:27:51;19.20;;;3.83;;
75928;SDS011;64606;44.062;2.986;2023-03-31T10:30:25;25.40;;;4.28;;
75928;SDS011;64606;44.062;2.986;2023-03-31T10:32:53;20.83;;;3.95;;
75928;SDS011;64606;44.062;2.986;2023-03-31T10:35:32;21.27;;;4.35;;
75928;SDS011;64606;44.062;2.986;2023-03-31T10:38:05;20.15;;;3.85;;
75928;SDS011;64606;44.062;2.986;2023-03-31T10:40:32;28.48;;;4.55;;
75928;SDS011;64606;44.062;2.986;2023-03-31T10:43:02;23.17;;;4.40;;
75928;SDS011;64606;44.062;2.986;2023-03-31T10:45:30;17.55;;;3.90;;
75928;SDS011;64606;44.062;2.986;2023-03-31T10:47:57;20.25;;;4.35;;
75928;SDS011;64606;44.062;2.986;2023-03-31T10:50:28;24.40;;;4.38;;
75928;SDS011;64606;44.062;2.986;2023-03-31T10:53:00;20.90;;;3.78;;
75928;SDS011;64606;44.062;2.986;2023-03-31T10:55:28;22.83;;;3.83;;
75928;SDS011;64606;44.062;2.986;2023-03-31T10:57:59;24.85;;;4.45;;
75928;SDS011;64606;44.062;2.986;2023-03-31T11:00:35;26.25;;;4.75;;
75928;SDS011;64606;44.062;2.986;2023-03-31T11:03:10;17.77;;;3.75;;
75928;SDS011;64606;44.062;2.986;2023-03-31T11:05:45;22.75;;;4.40;;
75928;SDS011;64606;44.062;2.986;2023-03-31T11:26:00;25.30;;;5.93;;
75928;SDS011;64606;44.062;2.986;2023-03-31T11:28:38;24.80;;;5.13;;
75928;SDS011;64606;44.062;2.986;2023-03-31T11:31:23;28.55;;;6.03;;
75928;SDS011;64606;44.062;2.986;2023-03-31T11:41:34;28.70;;;6.43;;
75928;SDS011;64606;44.062;2.986;2023-03-31T11:44:05;29.90;;;10.77;;
75928;SDS011;64606;44.062;2.986;2023-03-31T11:46:39;27.70;;;7.60;;
75928;SDS011;64606;44.062;2.986;2023-03-31T11:49:19;25.42;;;5.75;;
75928;SDS011;64606;44.062;2.986;2023-03-31T11:51:52;27.30;;;6.20;;
75928;SDS011;64606;44.062;2.986;2023-03-31T11:54:41;23.27;;;6.05;;
75928;SDS011;64606;44.062;2.986;2023-03-31T11:57:13;24.35;;;5.80;;
75928;SDS011;64606;44.062;2.986;2023-03-31T11:59:41;22.25;;;4.60;;
75928;SDS011;64606;44.062;2.986;2023-03-31T12:02:16;26.30;;;4.85;;
75928;SDS011;64606;44.062;2.986;2023-03-31T12:04:44;27.27;;;6.45;;
75928;SDS011;64606;44.062;2.986;2023-03-31T12:12:17;26.20;;;4.70;;
75928;SDS011;64606;44.062;2.986;2023-03-31T12:14:52;23.02;;;4.93;;
75928;SDS011;64606;44.062;2.986;2023-03-31T12:17:25;25.63;;;5.60;;
75928;SDS011;64606;44.062;2.986;2023-03-31T12:25:13;21.20;;;5.90;;
75928;SDS011;64606;44.062;2.986;2023-03-31T12:27:41;20.65;;;5.95;;
75928;SDS011;64606;44.062;2.986;2023-03-31T12:32:44;33.92;;;8.10;;
75928;SDS011;64606;44.062;2.986;2023-03-31T12:37:52;30.52;;;7.13;;
75928;SDS011;64606;44.062;2.986;2023-03-31T12:45:29;28.50;;;7.32;;
75928;SDS011;64606;44.062;2.986;2023-03-31T13:11:33;33.65;;;7.07;;
75928;SDS011;64606;44.062;2.986;2023-03-31T13:16:27;28.55;;;6.35;;
75928;SDS011;64606;44.062;2.986;2023-03-31T13:18:54;29.45;;;7.75;;
75928;SDS011;64606;44.062;2.986;2023-03-31T13:21:21;29.35;;;5.15;;
75928;SDS011;64606;44.062;2.986;2023-03-31T13:23:47;33.67;;;7.03;;
75928;SDS011;64606;44.062;2.986;2023-03-31T13:26:57;23.88;;;6.22;;
75928;SDS011;64606;44.062;2.986;2023-03-31T13:34:24;23.17;;;5.20;;
75928;SDS011;64606;44.062;2.986;2023-03-31T13:39:53;28.47;;;5.73;;
75928;SDS011;64606;44.062;2.986;2023-03-31T13:50:16;23.98;;;5.97;;
75928;SDS011;64606;44.062;2.986;2023-03-31T14:05:38;18.83;;;3.67;;
75928;SDS011;64606;44.062;2.986;2023-03-31T14:08:15;25.30;;;3.42;;
75928;SDS011;64606;44.062;2.986;2023-03-31T14:10:44;28.88;;;7.22;;
75928;SDS011;64606;44.062;2.986;2023-03-31T14:13:14;17.85;;;3.78;;
75928;SDS011;64606;44.062;2.986;2023-03-31T14:15:42;19.20;;;3.20;;
75928;SDS011;64606;44.062;2.986;2023-03-31T14:18:11;25.23;;;3.58;;
75928;SDS011;64606;44.062;2.986;2023-03-31T14:20:40;21.42;;;4.20;;
75928;SDS011;64606;44.062;2.986;2023-03-31T14:23:13;21.80;;;4.03;;
75928;SDS011;64606;44.062;2.986;2023-03-31T14:25:47;19.20;;;3.65;;
75928;SDS011;64606;44.062;2.986;2023-03-31T14:36:00;23.10;;;3.88;;
75928;SDS011;64606;44.062;2.986;2023-03-31T14:38:29;23.15;;;4.53;;
75928;SDS011;64606;44.062;2.986;2023-03-31T14:40:56;26.73;;;4.35;;
75928;SDS011;64606;44.062;2.986;2023-03-31T14:43:34;22.83;;;3.88;;
75928;SDS011;64606;44.062;2.986;2023-03-31T14:46:03;20.92;;;3.60;;
75928;SDS011;64606;44.062;2.986;2023-03-31T14:48:33;22.52;;;4.53;;
75928;SDS011;64606;44.062;2.986;2023-03-31T14:51:00;19.23;;;3.25;;
75928;SDS011;64606;44.062;2.986;2023-03-31T14:53:27;26.63;;;3.85;;
75928;SDS011;64606;44.062;2.986;2023-03-31T14:56:11;27.27;;;3.83;;
75928;SDS011;64606;44.062;2.986;2023-03-31T14:58:43;22.80;;;4.22;;
75928;SDS011;64606;44.062;2.986;2023-03-31T15:01:13;22.00;;;3.95;;
75928;SDS011;64606;44.062;2.986;2023-03-31T15:03:41;22.20;;;4.05;;
75928;SDS011;64606;44.062;2.986;2023-03-31T15:06:07;25.35;;;4.90;;
75928;SDS011;64606;44.062;2.986;2023-03-31T15:08:34;22.40;;;4.10;;
75928;SDS011;64606;44.062;2.986;2023-03-31T15:11:02;23.10;;;4.13;;
75928;SDS011;64606;44.062;2.986;2023-03-31T15:15:55;31.33;;;5.15;;
75928;SDS011;64606;44.062;2.986;2023-03-31T15:18:24;30.67;;;4.30;;
75928;SDS011;64606;44.062;2.986;2023-03-31T15:20:50;19.75;;;2.95;;
75928;SDS011;64606;44.062;2.986;2023-03-31T15:23:22;22.58;;;3.10;;
75928;SDS011;64606;44.062;2.986;2023-03-31T15:25:54;17.77;;;3.65;;
75928;SDS011;64606;44.062;2.986;2023-03-31T15:28:21;19.83;;;3.50;;
75928;SDS011;64606;44.062;2.986;2023-03-31T15:30:48;17.05;;;3.13;;
75928;SDS011;64606;44.062;2.986;2023-03-31T15:33:20;14.50;;;2.67;;
75928;SDS011;64606;44.062;2.986;2023-03-31T15:35:47;13.98;;;2.75;;
75928;SDS011;64606;44.062;2.986;2023-03-31T15:38:13;16.20;;;2.90;;
75928;SDS011;64606;44.062;2.986;2023-03-31T15:40:42;20.38;;;3.17;;
75928;SDS011;64606;44.062;2.986;2023-03-31T15:43:13;20.35;;;3.05;;
75928;SDS011;64606;44.062;2.986;2023-03-31T15:50:41;19.05;;;2.85;;
75928;SDS011;64606;44.062;2.986;2023-03-31T15:53:23;21.15;;;4.50;;
75928;SDS011;64606;44.062;2.986;2023-03-31T15:55:55;22.00;;;3.33;;
75928;SDS011;64606;44.062;2.986;2023-03-31T15:58:23;19.35;;;3.65;;
75928;SDS011;64606;44.062;2.986;2023-03-31T16:01:10;21.65;;;3.15;;
75928;SDS011;64606;44.062;2.986;2023-03-31T16:03:39;24.33;;;3.60;;
75928;SDS011;64606;44.062;2.986;2023-03-31T16:08:46;22.38;;;3.45;;
75928;SDS011;64606;44.062;2.986;2023-03-31T16:11:23;15.23;;;3.10;;
75928;SDS011;64606;44.062;2.986;2023-03-31T16:13:53;15.07;;;3.17;;
75928;SDS011;64606;44.062;2.986;2023-03-31T16:16:21;13.65;;;2.83;;
75928;SDS011;64606;44.062;2.986;2023-03-31T16:18:49;21.13;;;2.67;;
75928;SDS011;64606;44.062;2.986;2023-03-31T16:21:23;16.27;;;3.25;;
75928;SDS011;64606;44.062;2.986;2023-03-31T16:23:51;24.77;;;3.35;;
75928;SDS011;64606;44.062;2.986;2023-03-31T16:26:19;22.90;;;3.80;;
75928;SDS011;64606;44.062;2.986;2023-03-31T16:28:48;27.20;;;4.63;;
75928;SDS011;64606;44.062;2.986;2023-03-31T16:31:34;22.05;;;3.10;;
75928;SDS011;64606;44.062;2.986;2023-03-31T16:34:02;20.80;;;2.92;;
75928;SDS011;64606;44.062;2.986;2023-03-31T16:36:29;24.23;;;3.38;;
75928;SDS011;64606;44.062;2.986;2023-03-31T16:38:55;16.30;;;3.17;;
75928;SDS011;64606;44.062;2.986;2023-03-31T16:41:23;21.27;;;3.47;;
75928;SDS011;64606;44.062;2.986;2023-03-31T16:43:51;24.52;;;3.33;;
75928;SDS011;64606;44.062;2.986;2023-03-31T16:46:18;22.95;;;5.35;;
75928;SDS011;64606;44.062;2.986;2023-03-31T16:48:44;21.10;;;3.00;;
75928;SDS011;64606;44.062;2.986;2023-03-31T16:51:10;25.05;;;4.63;;
75928;SDS011;64606;44.062;2.986;2023-03-31T16:53:37;24.65;;;4.18;;
75928;SDS011;64606;44.062;2.986;2023-03-31T16:56:04;26.63;;;3.50;;
75928;SDS011;64606;44.062;2.986;2023-03-31T16:58:32;23.17;;;2.83;;
75928;SDS011;64606;44.062;2.986;2023-03-31T17:00:58;9.68;;;1.30;;
75928;SDS011;64606;44.062;2.986;2023-03-31T17:03:24;12.65;;;1.90;;
75928;SDS011;64606;44.062;2.986;2023-03-31T17:05:52;8.18;;;1.63;;
75928;SDS011;64606;44.062;2.986;2023-03-31T17:08:19;13.82;;;2.47;;
75928;SDS011;64606;44.062;2.986;2023-03-31T17:13:18;7.10;;;1.40;;
75928;SDS011;64606;44.062;2.986;2023-03-31T17:15:44;10.65;;;2.00;;
75928;SDS011;64606;44.062;2.986;2023-03-31T17:18:11;11.55;;;1.38;;
75928;SDS011;64606;44.062;2.986;2023-03-31T17:20:38;7.13;;;1.20;;
75928;SDS011;64606;44.062;2.986;2023-03-31T17:23:07;7.07;;;1.95;;
75928;SDS011;64606;44.062;2.986;2023-03-31T17:25:33;15.98;;;4.03;;
75928;SDS011;64606;44.062;2.986;2023-03-31T17:28:00;8.45;;;0.85;;
75928;SDS011;64606;44.062;2.986;2023-03-31T17:30:26;7.50;;;1.55;;
75928;SDS011;64606;44.062;2.986;2023-03-31T17:32:53;15.05;;;1.73;;
75928;SDS011;64606;44.062;2.986;2023-03-31T17:35:19;10.57;;;2.63;;
75928;SDS011;64606;44.062;2.986;2023-03-31T17:37:49;19.52;;;3.55;;
75928;SDS011;64606;44.062;2.986;2023-03-31T17:40:17;8.65;;;1.55;;
75928;SDS011;64606;44.062;2.986;2023-03-31T17:42:44;8.55;;;1.38;;
75928;SDS011;64606;44.062;2.986;2023-03-31T17:45:11;9.15;;;1.50;;
75928;SDS011;64606;44.062;2.986;2023-03-31T17:47:38;10.48;;;1.73;;
75928;SDS011;64606;44.062;2.986;2023-03-31T17:50:05;11.57;;;1.60;;
75928;SDS011;64606;44.062;2.986;2023-03-31T17:52:32;15.20;;;2.75;;
75928;SDS011;64606;44.062;2.986;2023-03-31T17:54:59;15.07;;;1.67;;
75928;SDS011;64606;44.062;2.986;2023-03-31T17:57:26;9.07;;;2.10;;
75928;SDS011;64606;44.062;2.986;2023-03-31T17:59:52;19.10;;;2.55;;